Airfield :
LOGIN :

Register | Disclaimer

   EN    FR    IT 

 










Legend :    VFR   Marginal VFR   IFR   Intensive IFR   Very Intensive IFR
Visi :
Ceiling :
>= 8 km
>= 3000ft
5 to 8 km
1000 to 3000 ft
1500m to 5 km
500 to 1000 ft
800 to 1500m
200 to 500 ft
< 800m
< 200 ft
Symbols :   Thunderstorms  Fog  Heavy snow  Heavy precipitations  Wind > 20 kt
SIGMETs :     Misc.  Thunderstorms  Icing  Turbulence  Mountain Waves  Volcanic Ashes






- Airport Elevation : 79 ft
- IATA code : NSY


LICZ - Sigonella (Mil) Catania

CURRENT METAR :
  • 030255Z 35004KT 9999 BKN080 13/13 Q1009 RMK BKN VIS MIN 9999 WIND THR28 04007KT WIND THR10 35005KT A2980 BLU

EXPIRED METARs :
  • 030155Z 32004KT 9999 SCT030 12/12 Q1009 RMK SCT VIS MIN 9999 WIND THR28 33004KT WIND THR10 33005KT A2983 BLU

TAF TAF LICZ
Valid from the 03 at 00:00 until the 04 at 00:00 UTC


022300Z 0300/0324 27004KT 9999 SCT020 BKN040
TEMPO 0304/0315 5000 TSRA SCT020CB BKN030
BECMG 0312/0314 18010KT
TEMPO 0315/0317 27015KT 8000 RA SCT020 BKN030



MET'MAP, your aeronautical weather chart ! - Copyright ORBIFLY December 2007 - Disclaimer

ORBIFLY MET'MAP TEAM :

Programming & Development : Alexandra Zaïnal
Concept & original design : Baudouin d'Aumeries
Assistance for programming : Marc-Olivier Méhu
Technical & hardware support : Manuel Goepfert

Contact : metmap@orbifly.com




SOURCES & CREDITS :

   NOAA